createdAt,value
2024-02-13T00:01:57.528Z,444.81301
2024-02-13T00:06:58.936Z,453.09091
2024-02-13T00:12:00.476Z,453.09091
2024-02-13T00:17:01.948Z,444.81301
2024-02-13T00:22:03.343Z,432.88889
2024-02-13T00:27:04.882Z,421.51938
2024-02-13T00:32:06.378Z,440.77419
2024-02-13T00:37:07.852Z,425.25
2024-02-13T00:42:09.277Z,425.25
2024-02-13T00:47:10.737Z,417.84615
2024-02-13T00:52:12.192Z,429.03937
2024-02-13T00:57:13.616Z,417.84615
2024-02-13T01:02:15.178Z,403.70149
2024-02-13T01:07:16.874Z,396.94118
2024-02-13T01:12:18.381Z,414.22901
2024-02-13T01:17:19.809Z,425.25
2024-02-13T01:22:21.277Z,410.66667
2024-02-13T01:27:22.682Z,410.66667
2024-02-13T01:32:24.307Z,425.25
2024-02-13T01:37:25.743Z,440.77419
2024-02-13T01:42:27.177Z,429.03937
2024-02-13T01:47:28.839Z,429.03937
2024-02-13T01:52:30.416Z,436.8
2024-02-13T01:57:31.821Z,440.77419
2024-02-13T02:02:33.754Z,444.81301
2024-02-13T02:07:35.166Z,432.88889
2024-02-13T02:12:36.547Z,429.03937
2024-02-13T02:17:38.270Z,414.22901
2024-02-13T02:22:39.753Z,403.70149
2024-02-13T02:27:41.185Z,414.22901
2024-02-13T02:32:42.947Z,429.03937
2024-02-13T02:37:44.602Z,436.8
2024-02-13T02:42:45.960Z,436.8
2024-02-13T02:47:47.510Z,429.03937
2024-02-13T02:52:49.157Z,429.03937
2024-02-13T02:57:50.666Z,425.25
2024-02-13T03:02:52.522Z,425.25
2024-02-13T03:07:54.232Z,429.03937
2024-02-13T03:12:55.795Z,436.8
2024-02-13T03:17:57.371Z,444.81301
2024-02-13T03:22:59.160Z,453.09091
2024-02-13T03:28:00.712Z,457.33333
2024-02-13T03:33:02.554Z,466.0339
2024-02-13T03:38:04.278Z,479.65217
2024-02-13T03:43:06.158Z,489.13274
2024-02-13T03:48:07.750Z,484.35088
2024-02-13T03:53:09.305Z,489.13274
2024-02-13T03:58:10.816Z,484.35088
2024-02-13T04:03:12.215Z,504
2024-02-13T04:08:14.095Z,504
2024-02-13T04:13:15.694Z,514.37037
2024-02-13T04:18:17.209Z,514.37037
2024-02-13T04:23:18.660Z,519.70093
2024-02-13T04:28:20.101Z,504
2024-02-13T04:33:21.663Z,498.95495
2024-02-13T04:38:23.204Z,504
2024-02-13T04:43:24.761Z,504
2024-02-13T04:48:26.511Z,514.37037
2024-02-13T04:53:28.077Z,509.13761
2024-02-13T04:58:29.628Z,509.13761
2024-02-13T05:03:31.064Z,498.95495
2024-02-13T05:08:32.584Z,494
2024-02-13T05:13:34.209Z,498.95495
2024-02-13T05:18:35.744Z,525.13208
2024-02-13T05:23:37.209Z,519.70093
2024-02-13T05:28:39.040Z,509.13761
2024-02-13T05:33:40.825Z,509.13761
2024-02-13T05:38:42.532Z,504
2024-02-13T05:43:44.068Z,509.13761
2024-02-13T05:48:45.546Z,498.95495
2024-02-13T05:53:47.344Z,509.13761
2024-02-13T05:58:48.841Z,509.13761
2024-02-13T06:03:50.527Z,519.70093
2024-02-13T06:08:52.326Z,525.13208
2024-02-13T06:13:53.942Z,530.66667
2024-02-13T06:18:55.496Z,525.13208
2024-02-13T06:23:57.175Z,536.30769
2024-02-13T06:28:58.796Z,536.30769
2024-02-13T06:34:00.562Z,542.05825
2024-02-13T06:39:02.268Z,547.92157
2024-02-13T06:44:03.795Z,542.05825
2024-02-13T06:49:05.307Z,547.92157
2024-02-13T06:54:06.967Z,542.05825
2024-02-13T06:59:08.432Z,542.05825
2024-02-13T07:04:09.835Z,536.30769
2024-02-13T07:09:11.574Z,530.66667
2024-02-13T07:14:13.153Z,536.30769
2024-02-13T07:19:14.957Z,547.92157
2024-02-13T07:24:16.522Z,553.90099
2024-02-13T07:29:18.046Z,547.92157
2024-02-13T07:34:19.640Z,547.92157
2024-02-13T07:39:21.353Z,566.22222
2024-02-13T07:44:22.828Z,572.57143
2024-02-13T07:49:24.389Z,592.42105
2024-02-13T07:54:26.056Z,599.31915
2024-02-13T07:59:27.628Z,613.56522
2024-02-13T08:04:29.135Z,620.92308
2024-02-13T08:09:30.638Z,620.92308
2024-02-13T08:14:32.252Z,606.36559
2024-02-13T08:19:33.687Z,599.31915
2024-02-13T08:24:35.258Z,585.66667
2024-02-13T08:29:36.721Z,585.66667
2024-02-13T08:34:38.318Z,579.05155
2024-02-13T08:39:39.823Z,599.31915
2024-02-13T08:44:41.220Z,606.36559
2024-02-13T08:49:42.734Z,660.27907
2024-02-13T08:54:44.437Z,660.27907
2024-02-13T08:59:46.081Z,668.70588
2024-02-13T09:04:47.592Z,636.13483
2024-02-13T09:09:49.255Z,644
2024-02-13T09:14:50.842Z,652.04598
2024-02-13T09:19:52.246Z,636.13483
2024-02-13T09:24:56.162Z,620.92308
2024-02-13T09:29:59.244Z,620.92308
2024-02-13T09:35:00.881Z,628.44444
2024-02-13T09:40:02.395Z,628.44444
2024-02-13T09:45:03.892Z,628.44444
2024-02-13T09:50:05.461Z,628.44444
2024-02-13T09:55:06.916Z,636.13483
2024-02-13T10:00:08.318Z,636.13483
2024-02-13T10:05:10.238Z,636.13483
2024-02-13T10:10:11.815Z,660.27907
2024-02-13T10:15:13.354Z,677.33333
2024-02-13T10:20:14.889Z,668.70588
2024-02-13T10:25:27.270Z,644
2024-02-13T10:30:28.851Z,644
2024-02-13T10:35:30.500Z,652.04598
2024-02-13T10:40:32.131Z,636.13483
2024-02-13T10:45:33.520Z,636.13483
2024-02-13T10:50:35.032Z,652.04598
2024-02-13T10:55:37.178Z,668.70588
2024-02-13T11:00:39.674Z,660.27907
2024-02-13T11:05:41.317Z,652.04598
2024-02-13T11:10:43.500Z,636.13483
2024-02-13T11:15:45.551Z,644
2024-02-13T11:20:47.210Z,660.27907
2024-02-13T11:25:48.714Z,660.27907
2024-02-13T11:30:50.229Z,686.16867
2024-02-13T11:35:51.886Z,660.27907
2024-02-13T11:40:53.390Z,668.70588
2024-02-13T11:45:54.754Z,686.16867
2024-02-13T11:50:56.307Z,686.16867
2024-02-13T11:55:57.839Z,677.33333
2024-02-13T12:00:59.265Z,686.16867
2024-02-13T12:06:00.762Z,695.21951
2024-02-13T12:11:02.314Z,686.16867
2024-02-13T12:16:04.115Z,704.49383
2024-02-13T12:21:05.616Z,677.33333
2024-02-13T12:26:07.051Z,714
2024-02-13T12:31:08.540Z,723.74684
2024-02-13T12:36:10.143Z,695.21951
2024-02-13T12:41:11.661Z,686.16867
2024-02-13T12:46:13.084Z,723.74684
2024-02-13T12:51:14.692Z,695.21951
2024-02-13T12:56:16.117Z,723.74684
2024-02-13T13:01:17.573Z,695.21951
2024-02-13T13:06:19.226Z,704.49383
2024-02-13T13:11:20.869Z,695.21951
2024-02-13T13:16:22.322Z,686.16867
2024-02-13T13:21:23.894Z,686.16867
2024-02-13T13:26:25.614Z,695.21951
2024-02-13T13:31:27.254Z,704.49383
2024-02-13T13:36:28.722Z,714
2024-02-13T13:41:30.170Z,733.74359
2024-02-13T13:46:31.644Z,765.33333
2024-02-13T13:51:33.416Z,765.33333
2024-02-13T13:56:34.903Z,765.33333
2024-02-13T14:01:36.293Z,765.33333
2024-02-13T14:06:37.818Z,765.33333
2024-02-13T14:11:39.344Z,754.52632
2024-02-13T14:16:40.815Z,733.74359
2024-02-13T14:21:42.271Z,765.33333
2024-02-13T14:26:43.702Z,765.33333
2024-02-13T14:31:45.167Z,776.43243
2024-02-13T14:36:49.023Z,744
2024-02-13T14:41:51.473Z,765.33333
2024-02-13T14:46:53.367Z,765.33333
2024-02-13T14:51:55.003Z,787.83562
2024-02-13T14:56:56.536Z,744
2024-02-13T15:01:58.050Z,744
2024-02-13T15:06:59.482Z,723.74684
2024-02-13T15:12:01.416Z,714
2024-02-13T15:17:03.078Z,704.49383
2024-02-13T15:22:04.579Z,733.74359
2024-02-13T15:27:05.968Z,754.52632
2024-02-13T15:32:07.465Z,668.70588
2024-02-13T15:37:08.922Z,686.16867
2024-02-13T15:42:21.029Z,714
2024-02-13T15:47:22.788Z,723.74684
2024-02-13T15:52:24.289Z,704.49383
2024-02-13T15:57:25.780Z,686.16867
2024-02-13T16:02:27.453Z,686.16867
2024-02-13T16:07:28.983Z,723.74684
2024-02-13T16:12:30.617Z,704.49383
2024-02-13T16:17:32.415Z,704.49383
2024-02-13T16:22:33.958Z,714
2024-02-13T16:27:35.490Z,714
2024-02-13T16:32:40.565Z,723.74684
2024-02-13T16:37:44.611Z,733.74359
2024-02-13T16:42:46.400Z,686.16867
2024-02-13T16:47:48.131Z,686.16867
2024-02-13T16:52:49.796Z,695.21951
2024-02-13T16:57:51.224Z,723.74684
2024-02-13T17:02:52.769Z,733.74359
2024-02-13T17:07:54.184Z,723.74684
2024-02-13T17:12:55.690Z,776.43243
2024-02-13T17:17:57.503Z,765.33333
2024-02-13T17:22:58.968Z,754.52632
2024-02-13T17:28:00.566Z,723.74684
2024-02-13T17:33:03.159Z,754.52632
2024-02-13T17:38:04.868Z,776.43243
2024-02-13T17:43:06.462Z,668.70588
2024-02-13T17:48:08.091Z,686.16867
2024-02-13T17:53:09.529Z,754.52632
2024-02-13T17:58:10.879Z,723.74684
2024-02-13T18:03:12.524Z,744
2024-02-13T18:08:13.981Z,686.16867
2024-02-13T18:13:15.430Z,704.49383
2024-02-13T18:18:17.154Z,704.49383
2024-02-13T18:23:18.686Z,765.33333
2024-02-13T18:28:20.118Z,733.74359
2024-02-13T18:33:21.792Z,733.74359
2024-02-13T18:38:23.796Z,0
2024-02-13T18:43:25.290Z,0
2024-02-13T18:48:26.987Z,0
2024-02-13T18:53:28.839Z,0
2024-02-13T18:58:30.629Z,0
2024-02-13T19:03:32.714Z,0
2024-02-13T19:08:34.267Z,0
2024-02-13T19:13:35.689Z,0
2024-02-13T19:18:37.719Z,0
2024-02-13T19:23:39.504Z,0
2024-02-13T19:28:41.102Z,0
2024-02-13T19:33:42.930Z,0
2024-02-13T19:38:44.589Z,863.40299
2024-02-13T19:43:46.178Z,811.60563
2024-02-13T19:48:47.869Z,799.55556
2024-02-13T19:53:49.476Z,787.83562
2024-02-13T19:58:51.012Z,836.75362
2024-02-13T20:03:52.780Z,836.75362
2024-02-13T20:08:54.355Z,0
2024-02-13T20:13:55.923Z,765.33333
2024-02-13T20:18:58.018Z,0
2024-02-13T20:23:59.825Z,0
2024-02-13T20:29:01.366Z,0
2024-02-13T20:34:03.293Z,0
2024-02-13T20:39:05.011Z,0
2024-02-13T20:44:06.441Z,0
2024-02-13T20:49:07.953Z,0
2024-02-13T20:54:09.605Z,0
2024-02-13T20:59:11.105Z,0
2024-02-13T21:04:12.666Z,0
2024-02-13T21:09:14.885Z,0
2024-02-13T21:14:16.441Z,0
2024-02-13T21:19:18.004Z,0
2024-02-13T21:24:19.794Z,0
2024-02-13T21:29:21.290Z,0
2024-02-13T21:34:23.118Z,0
2024-02-13T21:39:24.911Z,0
2024-02-13T21:44:26.433Z,0
2024-02-13T21:49:28.092Z,0
2024-02-13T21:54:29.891Z,0
2024-02-13T21:59:31.339Z,0
2024-02-13T22:04:34.728Z,0
2024-02-13T22:09:36.881Z,0
2024-02-13T22:14:38.483Z,0
2024-02-13T22:19:40.007Z,0
2024-02-13T22:24:41.697Z,0
2024-02-13T22:29:43.141Z,0
2024-02-13T22:34:44.919Z,0
2024-02-13T22:39:46.663Z,0
2024-02-13T22:44:48.107Z,0
2024-02-13T22:49:49.756Z,0
2024-02-13T22:54:51.305Z,0
2024-02-13T22:59:52.930Z,0
2024-02-13T23:04:54.568Z,0
2024-02-13T23:09:56.091Z,0
2024-02-13T23:14:58.140Z,0
2024-02-13T23:20:01.592Z,0
2024-02-13T23:25:03.156Z,0
2024-02-13T23:30:04.600Z,0
2024-02-13T23:35:06.167Z,733.74359
2024-02-13T23:40:07.728Z,677.33333
2024-02-13T23:45:09.382Z,733.74359
2024-02-13T23:50:10.885Z,628.44444
2024-02-13T23:55:12.270Z,652.04598
